aviador You're here:

LFRL Decoded Metar

LANVEDOC in FRANCE
Report Time2018-02-20 03:30:00
UTC Time2018-02-20 03:42:05
Flight Rules mvfr MVFR
Wind350° at 11 kt
W.Decomp.*RWY 05: 6.0 kt HW 9.2 kt LCW
W.Rank350° ranks 25
Current wind is above 350° avg. (8.0)
Visibility9999 m
Phenomena:N/A
Clouds:Overcast 013 Hf
Expected CloudBase > 800 ft AGL from Temp-Dew spread
Ceiling1,300 ft
Temp09°C (ISA -5)
Dew Point07°C (87% RH)
AAT4.3°C
QNH1022 hPa
Density Alt-554 ft
Elevation269 ft
Report Wrong Elevation
Raw Report
METAR LFRL 200330Z AUTO 35011KT 9999 OVC013 09/07 Q1022=

Extra information for LFRL:More info

Metar Taf Metar & Taf Last 4 Metars F.Rules Stats Wind Profile Meteogram Temp Stats Airport Information Weather charts Add Link Nearby VenuesMetar ALERT Operation Metar Decoded Social comments